Time;durP1;ratioP1;P1;durP2;ratioP2;P2;SDS_P1;SDS_P2;PMS_P1;PMS_P2;Temp;Humidity;BMP_temperature;BMP_pressure;BME280_temperature;BME280_humidity;BME280_pressure;Samples;Min_cycle;Max_cycle;Signal;HPM_P1;HPM_P2
2023/07/19 00:02:10;;;;;;;;;;;24.20;59.80;;;;;;5082202;28;20402;-39
2023/07/19 00:04:36;;;;;;;;;;;24.20;60.60;;;;;;5081572;28;19952;-38
2023/07/19 00:07:02;;;;;;;;;;;24.20;60.30;;;;;;5081068;28;19947;-38
2023/07/19 00:09:28;;;;;;;;;;;24.20;61.30;;;;;;5081859;28;19920;-38
2023/07/19 00:11:54;;;;;;;;;;;24.10;60.10;;;;;;5081606;28;19915;-39
2023/07/19 00:14:20;;;;;;;;;;;24.10;61.20;;;;;;5081494;28;19948;-39
2023/07/19 00:16:47;;;;;;;;;;;24.10;61.00;;;;;;5081674;28;19916;-38
2023/07/19 00:19:12;;;;;;;;;;;24.10;60.60;;;;;;5081597;28;19912;-38
2023/07/19 00:21:38;;;;;;;;;;;24.10;60.20;;;;;;5081282;28;19909;-38
2023/07/19 00:24:04;;;;;;;;;;;24.10;60.00;;;;;;5080363;28;19923;-38
2023/07/19 00:26:30;;;;;;;;;;;24.10;59.60;;;;;;5080645;28;20284;-37
2023/07/19 00:28:56;;;;;;;;;;;24.10;59.30;;;;;;5084916;28;19908;-38
2023/07/19 00:31:22;;;;;;;;;;;24.00;59.30;;;;;;5082297;28;19967;-38
2023/07/19 00:33:48;;;;;;;;;;;24.00;59.30;;;;;;5084807;28;20066;-38
2023/07/19 00:36:14;;;;;;;;;;;24.00;59.60;;;;;;5084955;28;19933;-38
2023/07/19 00:38:39;;;;;;;;;;;24.00;58.90;;;;;;5085083;28;20622;-38
2023/07/19 00:41:05;;;;;;;;;;;24.00;59.00;;;;;;5084210;28;20280;-38
2023/07/19 00:43:31;;;;;;;;;;;24.00;59.80;;;;;;5081480;28;19924;-38
2023/07/19 00:45:57;;;;;;;;;;;23.90;59.80;;;;;;5084565;28;19915;-37
2023/07/19 00:48:23;;;;;;;;;;;23.90;59.50;;;;;;5084854;28;19975;-38
2023/07/19 00:50:49;;;;;;;;;;;23.90;59.70;;;;;;5065931;28;19979;-38
2023/07/19 00:53:15;;;;;;;;;;;23.90;59.90;;;;;;5066431;28;19956;-38
2023/07/19 00:55:41;;;;;;;;;;;23.80;59.70;;;;;;5066048;28;19948;-38
2023/07/19 00:58:07;;;;;;;;;;;23.80;59.70;;;;;;5083903;28;19912;-38
2023/07/19 01:00:33;;;;;;;;;;;23.80;59.60;;;;;;5084490;28;19916;-38
2023/07/19 01:02:59;;;;;;;;;;;23.80;59.70;;;;;;5083909;28;19908;-38
2023/07/19 01:05:25;;;;;;;;;;;23.80;59.70;;;;;;5083956;28;19952;-38
2023/07/19 01:07:51;;;;;;;;;;;23.80;59.00;;;;;;5076233;28;19995;-39
2023/07/19 01:10:17;;;;;;;;;;;23.70;59.00;;;;;;5066377;28;19958;-37
2023/07/19 01:12:43;;;;;;;;;;;23.70;58.80;;;;;;5083867;28;20002;-38
2023/07/19 01:15:09;;;;;;;;;;;23.70;59.10;;;;;;5083994;28;19915;-38
2023/07/19 01:17:35;;;;;;;;;;;23.70;58.90;;;;;;5084295;28;19918;-38
2023/07/19 01:20:02;;;;;;;;;;;23.70;58.90;;;;;;5082015;28;19917;-38
2023/07/19 01:22:31;;;;;;;;;;;23.60;58.80;;;;;;5083515;28;19912;-38
2023/07/19 01:24:57;;;;;;;;;;;23.60;58.80;;;;;;5083214;28;19926;-38
2023/07/19 01:27:23;;;;;;;;;;;23.60;59.20;;;;;;5083722;28;19980;-38
2023/07/19 01:29:49;;;;;;;;;;;23.60;59.20;;;;;;5083556;28;19919;-39
2023/07/19 01:32:15;;;;;;;;;;;23.60;60.90;;;;;;5084132;28;19999;-38
2023/07/19 01:34:40;;;;;;;;;;;23.60;62.90;;;;;;5083354;28;20387;-38
2023/07/19 01:37:06;;;;;;;;;;;23.50;63.70;;;;;;5083227;28;19987;-39
2023/07/19 01:39:32;;;;;;;;;;;23.50;63.90;;;;;;5083948;28;19916;-38
2023/07/19 01:41:58;;;;;;;;;;;23.50;64.00;;;;;;5083395;28;19912;-39
2023/07/19 01:44:24;;;;;;;;;;;23.50;64.30;;;;;;5083690;28;19920;-39
2023/07/19 01:47:10;;;;;;;;;;;23.50;64.50;;;;;;5003669;28;19914;-38
2023/07/19 01:49:38;;;;;;;;;;;23.50;64.80;;;;;;5008703;28;19909;-39
2023/07/19 01:52:04;;;;;;;;;;;23.60;64.90;;;;;;5009438;28;19917;-38
2023/07/19 01:54:30;;;;;;;;;;;23.60;65.10;;;;;;5007919;28;19914;-38
2023/07/19 01:56:56;;;;;;;;;;;23.60;65.30;;;;;;5018403;28;19919;-39
2023/07/19 01:59:22;;;;;;;;;;;23.60;65.40;;;;;;5012368;28;19972;-38
2023/07/19 02:01:48;;;;;;;;;;;23.60;65.60;;;;;;5011558;28;19920;-38
2023/07/19 02:04:14;;;;;;;;;;;23.60;65.80;;;;;;5001943;28;19942;-38
2023/07/19 02:06:40;;;;;;;;;;;23.60;66.00;;;;;;5007044;28;19967;-38
2023/07/19 02:09:08;;;;;;;;;;;23.60;66.20;;;;;;5011041;28;19917;-38
2023/07/19 02:11:37;;;;;;;;;;;23.70;66.50;;;;;;5012462;28;19937;-38
2023/07/19 02:14:03;;;;;;;;;;;23.70;66.50;;;;;;5017336;28;19952;-38
2023/07/19 02:16:29;;;;;;;;;;;23.70;66.70;;;;;;5018780;28;19913;-38
2023/07/19 02:18:55;;;;;;;;;;;23.70;66.70;;;;;;5004469;28;19969;-38
2023/07/19 02:21:21;;;;;;;;;;;23.70;66.80;;;;;;5002525;28;19921;-38
2023/07/19 02:23:47;;;;;;;;;;;23.80;66.90;;;;;;5030175;28;19992;-38
2023/07/19 02:26:13;;;;;;;;;;;23.80;67.00;;;;;;5079179;28;20453;-38
2023/07/19 02:28:38;;;;;;;;;;;23.80;67.00;;;;;;5079305;28;20341;-38
2023/07/19 02:31:04;;;;;;;;;;;23.80;67.10;;;;;;5082832;28;19919;-38
2023/07/19 02:33:30;;;;;;;;;;;23.80;67.20;;;;;;5082775;28;19912;-38
2023/07/19 02:35:56;;;;;;;;;;;23.80;67.10;;;;;;5076275;28;19912;-38
2023/07/19 02:38:44;;;;;;;;;;;23.90;67.20;;;;;;5020248;28;20382;-38
2023/07/19 02:41:10;;;;;;;;;;;23.90;67.40;;;;;;5019577;28;19916;-38
2023/07/19 02:43:36;;;;;;;;;;;23.90;67.50;;;;;;5020335;28;19918;-39
2023/07/19 02:46:02;;;;;;;;;;;23.90;67.60;;;;;;5019945;28;19921;-39
2023/07/19 02:48:28;;;;;;;;;;;23.90;67.70;;;;;;5020375;28;19952;-38
2023/07/19 02:50:54;;;;;;;;;;;24.00;67.80;;;;;;5020136;28;19909;-39
2023/07/19 02:53:20;;;;;;;;;;;24.00;67.90;;;;;;5020253;28;20503;-39
2023/07/19 02:55:46;;;;;;;;;;;24.00;67.90;;;;;;5019921;28;19914;-39
2023/07/19 02:58:13;;;;;;;;;;;24.00;67.90;;;;;;5019838;28;19909;-39
2023/07/19 03:00:40;;;;;;;;;;;24.00;67.90;;;;;;5019478;28;20014;-38
2023/07/19 03:03:06;;;;;;;;;;;24.00;67.90;;;;;;5019530;28;19909;-39
2023/07/19 03:05:34;;;;;;;;;;;24.00;67.80;;;;;;5019875;28;19913;-39
2023/07/19 03:08:01;;;;;;;;;;;24.00;67.90;;;;;;5019301;28;19917;-39
2023/07/19 03:10:27;;;;;;;;;;;24.10;68.00;;;;;;5020034;28;19909;-39
2023/07/19 03:12:53;;;;;;;;;;;24.10;68.00;;;;;;5019786;28;19913;-39
2023/07/19 03:15:19;;;;;;;;;;;24.10;68.00;;;;;;5039128;28;19997;-39
2023/07/19 03:17:45;;;;;;;;;;;24.10;68.00;;;;;;5081969;28;19928;-40
2023/07/19 03:20:11;;;;;;;;;;;24.10;68.10;;;;;;5081539;28;20651;-39
2023/07/19 03:22:37;;;;;;;;;;;24.10;68.20;;;;;;5082327;28;19918;-39
2023/07/19 03:25:03;;;;;;;;;;;24.10;68.40;;;;;;5078169;28;20457;-39
2023/07/19 03:27:29;;;;;;;;;;;24.10;68.40;;;;;;5081972;28;19908;-38
2023/07/19 03:29:55;;;;;;;;;;;24.10;68.40;;;;;;5081815;28;19913;-38
2023/07/19 03:32:21;;;;;;;;;;;24.20;68.60;;;;;;5081895;28;19908;-39
2023/07/19 03:34:46;;;;;;;;;;;24.20;68.70;;;;;;5082065;28;19975;-39
2023/07/19 03:37:12;;;;;;;;;;;24.20;68.70;;;;;;5080318;28;19912;-38
2023/07/19 03:39:38;;;;;;;;;;;24.10;69.30;;;;;;5082043;28;19908;-39
2023/07/19 03:42:04;;;;;;;;;;;24.20;68.70;;;;;;5081792;28;19912;-39
2023/07/19 03:44:32;;;;;;;;;;;24.20;68.70;;;;;;5082081;28;19951;-39
2023/07/19 03:46:58;;;;;;;;;;;24.20;68.60;;;;;;5079818;28;19918;-39
2023/07/19 03:49:24;;;;;;;;;;;24.20;68.40;;;;;;5081981;28;19916;-39
2023/07/19 03:51:49;;;;;;;;;;;24.20;68.30;;;;;;5081839;28;19912;-38
2023/07/19 03:54:17;;;;;;;;;;;24.30;68.30;;;;;;5082190;28;19909;-38
2023/07/19 03:56:43;;;;;;;;;;;24.30;68.20;;;;;;5081767;28;19908;-39
2023/07/19 03:59:09;;;;;;;;;;;24.30;68.20;;;;;;5083698;28;19912;-39
2023/07/19 04:01:36;;;;;;;;;;;24.30;68.30;;;;;;5085930;28;19915;-39
2023/07/19 04:04:03;;;;;;;;;;;24.30;68.40;;;;;;5085242;28;19978;-38
2023/07/19 04:06:29;;;;;;;;;;;24.30;68.60;;;;;;5085578;28;19908;-38
2023/07/19 04:08:55;;;;;;;;;;;24.30;68.70;;;;;;5084839;28;19921;-38
2023/07/19 04:11:21;;;;;;;;;;;24.30;68.70;;;;;;5085835;28;19908;-39
2023/07/19 04:13:47;;;;;;;;;;;24.30;68.80;;;;;;5084356;28;19912;-39
2023/07/19 04:16:13;;;;;;;;;;;24.30;68.80;;;;;;5085378;28;19916;-39
2023/07/19 04:18:39;;;;;;;;;;;24.30;68.80;;;;;;5084930;28;19912;-38
2023/07/19 04:21:05;;;;;;;;;;;24.30;68.90;;;;;;5082002;28;19980;-38
2023/07/19 04:23:30;;;;;;;;;;;24.30;68.80;;;;;;5080483;28;19948;-39
2023/07/19 04:25:56;;;;;;;;;;;24.30;68.80;;;;;;5084886;28;20280;-38
2023/07/19 04:28:22;;;;;;;;;;;24.30;68.80;;;;;;5085005;28;20077;-38
2023/07/19 04:30:48;;;;;;;;;;;24.30;68.80;;;;;;5084727;28;19909;-39
2023/07/19 04:33:14;;;;;;;;;;;24.30;68.60;;;;;;5085052;28;19909;-39
2023/07/19 04:35:40;;;;;;;;;;;24.40;68.60;;;;;;5083648;28;19912;-39
2023/07/19 04:38:06;;;;;;;;;;;24.40;68.40;;;;;;5074787;28;19943;-39
2023/07/19 04:40:32;;;;;;;;;;;24.40;68.40;;;;;;5084034;28;19919;-38
2023/07/19 04:42:58;;;;;;;;;;;24.40;68.40;;;;;;5084553;28;19912;-39
2023/07/19 04:45:24;;;;;;;;;;;24.40;68.40;;;;;;5084659;28;19916;-39
2023/07/19 04:47:50;;;;;;;;;;;24.40;68.50;;;;;;5084460;28;19944;-40
2023/07/19 04:50:16;;;;;;;;;;;24.40;68.60;;;;;;5084943;28;20543;-38
2023/07/19 04:52:45;;;;;;;;;;;24.40;68.70;;;;;;5084766;28;20357;-39
2023/07/19 04:55:11;;;;;;;;;;;24.40;68.90;;;;;;5083358;28;19923;-39
2023/07/19 04:57:37;;;;;;;;;;;24.40;69.00;;;;;;5084875;28;19912;-38
2023/07/19 05:00:05;;;;;;;;;;;24.40;69.10;;;;;;5084179;28;19916;-39
2023/07/19 05:02:30;;;;;;;;;;;24.40;69.20;;;;;;5085017;28;19915;-38
2023/07/19 05:04:56;;;;;;;;;;;24.50;69.30;;;;;;5084371;28;19916;-39
2023/07/19 05:07:22;;;;;;;;;;;24.40;69.20;;;;;;5077680;28;20375;-38
2023/07/19 05:09:48;;;;;;;;;;;24.40;69.20;;;;;;5082604;28;19917;-38
2023/07/19 05:12:14;;;;;;;;;;;24.50;69.20;;;;;;5084177;28;19909;-39
2023/07/19 05:14:41;;;;;;;;;;;24.50;69.10;;;;;;5084319;28;19971;-39
2023/07/19 05:17:07;;;;;;;;;;;24.50;69.00;;;;;;5084087;28;19936;-39
2023/07/19 05:19:33;;;;;;;;;;;24.50;68.90;;;;;;5084359;28;19934;-38
2023/07/19 05:21:59;;;;;;;;;;;24.50;68.90;;;;;;5084235;28;19908;-39
2023/07/19 05:24:26;;;;;;;;;;;24.50;68.80;;;;;;5084386;28;19920;-39
2023/07/19 05:26:52;;;;;;;;;;;24.50;68.80;;;;;;5083679;28;19980;-38
2023/07/19 05:29:17;;;;;;;;;;;24.50;68.60;;;;;;5080468;28;20495;-38
2023/07/19 05:31:43;;;;;;;;;;;24.50;68.80;;;;;;5083989;28;19939;-38
2023/07/19 05:34:09;;;;;;;;;;;24.50;69.00;;;;;;5083828;28;19966;-38
2023/07/19 05:36:37;;;;;;;;;;;24.50;69.00;;;;;;5081448;28;19912;-38
2023/07/19 05:39:03;;;;;;;;;;;24.50;69.30;;;;;;5082776;28;19923;-38
2023/07/19 05:41:29;;;;;;;;;;;24.50;69.30;;;;;;5080755;28;20292;-39
2023/07/19 05:44:16;;;;;;;;;;;24.50;69.50;;;;;;5034220;28;20348;-38
2023/07/19 05:46:42;;;;;;;;;;;24.50;69.50;;;;;;5040871;28;19932;-39
2023/07/19 05:49:08;;;;;;;;;;;24.50;69.60;;;;;;5040904;28;20192;-38
2023/07/19 05:51:34;;;;;;;;;;;24.50;69.60;;;;;;5041356;28;19913;-39
2023/07/19 05:54:00;;;;;;;;;;;24.50;69.50;;;;;;5040934;28;19936;-38
2023/07/19 05:56:26;;;;;;;;;;;24.50;69.40;;;;;;5040821;28;19909;-38
2023/07/19 05:58:53;;;;;;;;;;;24.50;69.40;;;;;;5040185;28;19912;-38
2023/07/19 06:01:19;;;;;;;;;;;24.50;69.30;;;;;;5041039;28;19913;-39
2023/07/19 06:03:46;;;;;;;;;;;24.50;69.10;;;;;;5040763;28;20078;-38
2023/07/19 06:06:12;;;;;;;;;;;24.50;68.90;;;;;;5039819;28;19916;-38
2023/07/19 06:08:37;;;;;;;;;;;24.50;68.80;;;;;;5040590;28;19928;-38
2023/07/19 06:11:03;;;;;;;;;;;24.50;68.60;;;;;;5035436;28;19917;-38
2023/07/19 06:13:29;;;;;;;;;;;24.50;68.40;;;;;;5040755;28;20306;-38
2023/07/19 06:15:56;;;;;;;;;;;24.50;68.50;;;;;;5040222;28;20455;-39
2023/07/19 06:18:23;;;;;;;;;;;24.50;68.60;;;;;;5040617;28;20399;-39
2023/07/19 06:20:48;;;;;;;;;;;24.60;68.80;;;;;;5051574;28;19919;-39
2023/07/19 06:23:14;;;;;;;;;;;24.60;69.30;;;;;;5082988;28;20007;-38
2023/07/19 06:25:40;;;;;;;;;;;24.50;69.50;;;;;;5083136;28;19913;-38
2023/07/19 06:28:06;;;;;;;;;;;24.60;69.60;;;;;;5081293;28;19996;-39
2023/07/19 06:30:32;;;;;;;;;;;24.60;69.90;;;;;;5082938;28;19988;-38
2023/07/19 06:32:58;;;;;;;;;;;24.50;70.00;;;;;;5082691;28;19912;-38
2023/07/19 06:35:24;;;;;;;;;;;24.50;70.10;;;;;;5082554;28;19915;-38
2023/07/19 06:37:50;;;;;;;;;;;24.50;69.90;;;;;;5077370;28;19912;-38
2023/07/19 06:40:15;;;;;;;;;;;24.60;69.90;;;;;;5082948;28;19908;-39
2023/07/19 06:42:44;;;;;;;;;;;24.60;69.60;;;;;;5076963;28;19909;-38
2023/07/19 06:45:10;;;;;;;;;;;24.60;69.40;;;;;;5082688;28;19920;-38
2023/07/19 06:47:36;;;;;;;;;;;24.50;69.10;;;;;;5082661;28;19908;-38
2023/07/19 06:50:02;;;;;;;;;;;24.60;69.10;;;;;;5082346;28;19924;-39
2023/07/19 06:52:28;;;;;;;;;;;24.60;68.90;;;;;;5082725;28;19934;-38
2023/07/19 06:54:53;;;;;;;;;;;24.60;68.80;;;;;;5081919;28;19987;-38
2023/07/19 06:57:20;;;;;;;;;;;24.60;68.80;;;;;;5082558;28;19918;-38
2023/07/19 06:59:49;;;;;;;;;;;24.60;68.80;;;;;;5082206;28;20278;-38
2023/07/19 07:02:17;;;;;;;;;;;24.60;69.10;;;;;;5074921;28;19979;-38
2023/07/19 07:04:43;;;;;;;;;;;24.60;69.60;;;;;;5082204;28;19920;-39
2023/07/19 07:07:09;;;;;;;;;;;24.50;69.80;;;;;;5075266;28;19908;-38
2023/07/19 07:09:36;;;;;;;;;;;24.60;70.30;;;;;;5082170;28;19927;-38
2023/07/19 07:12:02;;;;;;;;;;;24.60;70.30;;;;;;5082391;28;19919;-38
2023/07/19 07:14:28;;;;;;;;;;;24.50;70.30;;;;;;5082498;28;19912;-38
2023/07/19 07:16:54;;;;;;;;;;;24.60;70.40;;;;;;5081930;28;19915;-39
2023/07/19 07:19:20;;;;;;;;;;;24.50;70.30;;;;;;5080711;28;20011;-38
2023/07/19 07:21:46;;;;;;;;;;;24.50;70.30;;;;;;5073491;28;19909;-38
2023/07/19 07:24:11;;;;;;;;;;;24.50;70.10;;;;;;5077514;28;19943;-38
2023/07/19 07:26:37;;;;;;;;;;;24.50;69.80;;;;;;5082290;28;19976;-39
2023/07/19 07:29:04;;;;;;;;;;;24.60;69.60;;;;;;5081326;28;19932;-39
2023/07/19 07:31:32;;;;;;;;;;;24.60;69.40;;;;;;5082450;28;19915;-39
2023/07/19 07:33:58;;;;;;;;;;;24.50;69.40;;;;;;5083627;28;19919;-39
2023/07/19 07:36:24;;;;;;;;;;;24.60;69.30;;;;;;5084621;28;19952;-39
2023/07/19 07:38:50;;;;;;;;;;;24.50;69.20;;;;;;5085747;28;19916;-38
2023/07/19 07:41:16;;;;;;;;;;;24.60;69.30;;;;;;5086455;28;19917;-39
2023/07/19 07:43:42;;;;;;;;;;;24.60;69.20;;;;;;5085909;28;19916;-38
2023/07/19 07:46:08;;;;;;;;;;;24.50;69.40;;;;;;5085670;28;19919;-38
2023/07/19 07:48:34;;;;;;;;;;;24.60;69.80;;;;;;5082743;28;19916;-39
2023/07/19 07:51:00;;;;;;;;;;;24.60;70.00;;;;;;5084860;28;19974;-38
2023/07/19 07:53:25;;;;;;;;;;;24.60;70.20;;;;;;5086048;28;19912;-39
2023/07/19 07:55:51;;;;;;;;;;;24.50;70.40;;;;;;5085711;28;19909;-39
2023/07/19 07:58:17;;;;;;;;;;;24.50;70.50;;;;;;5085676;28;19923;-38
2023/07/19 08:00:44;;;;;;;;;;;24.50;70.50;;;;;;5085727;28;19917;-38
2023/07/19 08:03:10;;;;;;;;;;;24.50;70.60;;;;;;5085948;28;20727;-38
2023/07/19 08:05:37;;;;;;;;;;;24.50;70.60;;;;;;5085401;28;19912;-38
2023/07/19 08:08:05;;;;;;;;;;;24.50;70.50;;;;;;5085002;28;19928;-39
2023/07/19 08:10:32;;;;;;;;;;;24.50;70.20;;;;;;5085787;28;19966;-38
2023/07/19 08:12:57;;;;;;;;;;;24.50;70.00;;;;;;5085402;28;20373;-44
2023/07/19 08:15:24;;;;;;;;;;;24.50;69.70;;;;;;5083781;28;19919;-38
2023/07/19 08:17:50;;;;;;;;;;;24.50;69.60;;;;;;5085269;28;19912;-38
2023/07/19 08:20:15;;;;;;;;;;;24.50;69.60;;;;;;5085312;28;19908;-39
2023/07/19 08:22:41;;;;;;;;;;;24.50;69.50;;;;;;5062223;28;19916;-38
2023/07/19 08:25:07;;;;;;;;;;;24.50;69.40;;;;;;5085254;28;19920;-38
2023/07/19 08:27:33;;;;;;;;;;;24.50;69.30;;;;;;5085455;28;19911;-38
2023/07/19 08:30:00;;;;;;;;;;;24.50;69.30;;;;;;5084634;28;20359;-38
2023/07/19 08:32:26;;;;;;;;;;;24.50;69.80;;;;;;5083935;28;19920;-39
2023/07/19 08:34:52;;;;;;;;;;;24.50;70.00;;;;;;5082555;28;19912;-38
2023/07/19 08:37:18;;;;;;;;;;;24.50;70.30;;;;;;5080493;28;19924;-38
2023/07/19 08:39:44;;;;;;;;;;;24.50;70.30;;;;;;5084656;28;19913;-38
2023/07/19 08:42:10;;;;;;;;;;;24.50;70.40;;;;;;5085076;28;19913;-38
2023/07/19 08:44:36;;;;;;;;;;;24.50;70.50;;;;;;5084726;28;20015;-38
2023/07/19 08:47:03;;;;;;;;;;;24.50;70.60;;;;;;5084728;28;19928;-38
2023/07/19 08:49:28;;;;;;;;;;;24.50;70.70;;;;;;5084678;28;19913;-38
2023/07/19 08:51:56;;;;;;;;;;;24.50;70.60;;;;;;5084890;28;19908;-38
2023/07/19 08:54:21;;;;;;;;;;;24.50;70.40;;;;;;5084711;28;19913;-38
2023/07/19 08:56:47;;;;;;;;;;;24.50;70.20;;;;;;5066609;28;19918;-38
2023/07/19 08:59:13;;;;;;;;;;;24.50;70.00;;;;;;5084155;28;19922;-38
2023/07/19 09:01:39;;;;;;;;;;;24.50;69.80;;;;;;5084821;28;19915;-38
2023/07/19 09:04:09;;;;;;;;;;;24.50;69.60;;;;;;5084238;28;19978;-38
2023/07/19 09:06:35;;;;;;;;;;;24.50;69.70;;;;;;5082367;28;20367;-38
2023/07/19 09:09:01;;;;;;;;;;;24.50;69.60;;;;;;5083753;28;19962;-38
2023/07/19 09:11:27;;;;;;;;;;;24.50;69.50;;;;;;5083173;28;20653;-38
2023/07/19 09:13:56;;;;;;;;;;;24.50;69.60;;;;;;5084412;28;19913;-38
2023/07/19 09:16:32;;;;;;;;;;;24.50;69.70;;;;;;5084703;28;19912;-39
2023/07/19 09:18:58;;;;;;;;;;;24.50;70.00;;;;;;5084079;28;19912;-39
2023/07/19 09:21:33;;;;;;;;;;;24.50;70.30;;;;;;5083078;28;19912;-38
2023/07/19 09:24:02;;;;;;;;;;;24.50;70.40;;;;;;5084091;28;20374;-39
2023/07/19 09:26:28;;;;;;;;;;;24.50;70.30;;;;;;5084505;28;19971;-39
2023/07/19 09:28:55;;;;;;;;;;;24.50;70.40;;;;;;5065725;28;19944;-38
2023/07/19 09:31:22;;;;;;;;;;;24.50;70.40;;;;;;5083639;28;19908;-38
2023/07/19 09:33:48;;;;;;;;;;;24.50;70.50;;;;;;5083734;28;19915;-38
2023/07/19 09:36:19;;;;;;;;;;;24.50;70.60;;;;;;5079585;28;19912;-39
2023/07/19 09:38:45;;;;;;;;;;;24.50;70.60;;;;;;5080933;28;19912;-38
2023/07/19 09:41:11;;;;;;;;;;;24.50;70.30;;;;;;5083850;28;19913;-37
2023/07/19 09:43:37;;;;;;;;;;;24.50;70.20;;;;;;5083566;28;19926;-38
2023/07/19 09:46:03;;;;;;;;;;;24.40;70.00;;;;;;5065699;28;19942;-38
2023/07/19 09:48:30;;;;;;;;;;;24.50;70.00;;;;;;5066227;28;19987;-39
2023/07/19 09:50:56;;;;;;;;;;;24.50;70.00;;;;;;5077822;28;20506;-38
2023/07/19 09:53:22;;;;;;;;;;;24.50;70.00;;;;;;5083893;28;19972;-38
2023/07/19 09:55:48;;;;;;;;;;;24.40;69.90;;;;;;5082818;28;19908;-38
2023/07/19 09:58:15;;;;;;;;;;;24.50;69.90;;;;;;5065454;28;19999;-38
2023/07/19 10:00:40;;;;;;;;;;;24.40;69.90;;;;;;5065201;28;19912;-38
2023/07/19 10:03:09;;;;;;;;;;;24.40;70.10;;;;;;5065461;28;19942;-38
2023/07/19 10:05:37;;;;;;;;;;;24.40;70.30;;;;;;5082164;28;19919;-43
2023/07/19 10:08:04;;;;;;;;;;;24.40;70.40;;;;;;5082407;28;19928;-38
2023/07/19 10:10:36;;;;;;;;;;;24.40;70.40;;;;;;5083054;28;20508;-38
2023/07/19 10:13:02;;;;;;;;;;;24.40;70.50;;;;;;5083203;28;19912;-38
2023/07/19 10:15:28;;;;;;;;;;;24.40;70.60;;;;;;5081818;28;19950;-38
2023/07/19 10:17:54;;;;;;;;;;;24.40;70.70;;;;;;5065025;28;19916;-38
2023/07/19 10:20:25;;;;;;;;;;;24.40;70.70;;;;;;5082938;28;19934;-38
2023/07/19 10:22:58;;;;;;;;;;;24.40;70.70;;;;;;5082989;28;19912;-38
2023/07/19 10:25:24;;;;;;;;;;;24.40;70.40;;;;;;5064776;28;20389;-38
2023/07/19 10:27:57;;;;;;;;;;;24.40;70.40;;;;;;5082900;28;19912;-38
2023/07/19 10:30:42;;;;;;;;;;;24.40;70.40;;;;;;5075454;28;19912;-38
2023/07/19 10:33:08;;;;;;;;;;;24.40;70.40;;;;;;5082708;28;19912;-38
2023/07/19 10:35:34;;;;;;;;;;;24.40;70.20;;;;;;5082487;28;19919;-46
2023/07/19 10:38:00;;;;;;;;;;;24.40;70.30;;;;;;5082637;28;19912;-38
2023/07/19 10:40:26;;;;;;;;;;;24.40;70.30;;;;;;5082432;28;19916;-39
2023/07/19 10:42:51;;;;;;;;;;;24.30;70.50;;;;;;5081245;28;19908;-38
2023/07/19 10:45:17;;;;;;;;;;;24.40;70.20;;;;;;5082710;28;19931;-38
2023/07/19 10:47:43;;;;;;;;;;;24.40;70.40;;;;;;5082742;28;19916;-39
2023/07/19 10:50:09;;;;;;;;;;;24.40;70.50;;;;;;5082243;28;19909;-38
2023/07/19 10:52:35;;;;;;;;;;;24.40;70.60;;;;;;5082947;28;19912;-38
2023/07/19 10:55:01;;;;;;;;;;;24.40;71.40;;;;;;5082349;28;19912;-38
2023/07/19 10:57:27;;;;;;;;;;;24.40;70.80;;;;;;5082897;28;19912;-38
2023/07/19 10:59:53;;;;;;;;;;;24.40;70.70;;;;;;5082200;28;19917;-39
2023/07/19 11:02:19;;;;;;;;;;;24.30;70.70;;;;;;5082212;28;19919;-38
2023/07/19 11:04:46;;;;;;;;;;;24.30;70.80;;;;;;5082059;28;19982;-38
2023/07/19 11:07:12;;;;;;;;;;;24.30;70.20;;;;;;5076116;28;19939;-38
2023/07/19 11:10:04;;;;;;;;;;;24.30;70.60;;;;;;5081759;28;19921;-38
2023/07/19 11:12:33;;;;;;;;;;;24.30;70.70;;;;;;5074352;28;19912;-39
2023/07/19 11:15:00;;;;;;;;;;;24.30;70.50;;;;;;5064672;28;19981;-39
2023/07/19 11:17:29;;;;;;;;;;;24.30;70.50;;;;;;5079970;28;19908;-39
2023/07/19 11:19:55;;;;;;;;;;;24.30;70.50;;;;;;5081720;28;19919;-39
2023/07/19 11:22:24;;;;;;;;;;;24.30;70.50;;;;;;5082447;28;19908;-39
2023/07/19 11:24:52;;;;;;;;;;;24.30;70.50;;;;;;5081944;28;19920;-39
2023/07/19 11:27:18;;;;;;;;;;;24.30;70.50;;;;;;5075585;28;19971;-39
2023/07/19 11:29:48;;;;;;;;;;;24.30;70.30;;;;;;5063838;28;19931;-39
2023/07/19 11:32:18;;;;;;;;;;;24.30;70.50;;;;;;5081813;28;19917;-39
2023/07/19 11:34:48;;;;;;;;;;;24.30;70.50;;;;;;5081360;28;19921;-39
2023/07/19 11:37:20;;;;;;;;;;;24.30;70.70;;;;;;5080171;28;19947;-42
2023/07/19 11:39:49;;;;;;;;;;;24.30;70.70;;;;;;5081448;28;19919;-39
2023/07/19 11:42:35;;;;;;;;;;;24.30;70.80;;;;;;5078185;28;19984;-38
2023/07/19 11:45:06;;;;;;;;;;;24.30;70.90;;;;;;5080453;28;19959;-39
2023/07/19 11:47:32;;;;;;;;;;;24.30;70.90;;;;;;5082221;28;19919;-39
2023/07/19 11:49:58;;;;;;;;;;;24.30;70.90;;;;;;5081490;28;19912;-39
2023/07/19 11:52:24;;;;;;;;;;;24.30;71.00;;;;;;5082257;28;19932;-39
2023/07/19 11:54:50;;;;;;;;;;;24.30;70.90;;;;;;5081706;28;19921;-38
2023/07/19 11:57:16;;;;;;;;;;;24.30;71.00;;;;;;5074992;28;19920;-39
2023/07/19 11:59:42;;;;;;;;;;;24.30;70.80;;;;;;5081711;28;19908;-39
2023/07/19 12:02:08;;;;;;;;;;;24.30;70.80;;;;;;5081886;28;19940;-39
2023/07/19 12:04:34;;;;;;;;;;;24.30;70.70;;;;;;5081764;28;19932;-38
2023/07/19 12:07:00;;;;;;;;;;;24.30;70.80;;;;;;5079830;28;19913;-38
2023/07/19 12:09:26;;;;;;;;;;;24.30;70.70;;;;;;5081878;28;19920;-39
2023/07/19 12:11:52;;;;;;;;;;;24.30;70.70;;;;;;5081160;28;20589;-39
2023/07/19 12:14:18;;;;;;;;;;;24.30;70.60;;;;;;5081731;28;20365;-39
2023/07/19 12:16:44;;;;;;;;;;;24.30;70.70;;;;;;5081708;28;20333;-38
2023/07/19 12:19:11;;;;;;;;;;;24.30;70.80;;;;;;5081793;28;19943;-39
2023/07/19 12:21:38;;;;;;;;;;;24.30;70.90;;;;;;5085312;28;19934;-39
2023/07/19 12:24:04;;;;;;;;;;;24.30;70.90;;;;;;5083744;28;19959;-39
2023/07/19 12:26:30;;;;;;;;;;;24.30;71.00;;;;;;5080634;28;19908;-39
2023/07/19 12:28:56;;;;;;;;;;;24.30;71.10;;;;;;5084799;28;19919;-38
2023/07/19 12:31:22;;;;;;;;;;;24.30;71.20;;;;;;5085273;28;20000;-39
2023/07/19 12:33:49;;;;;;;;;;;24.20;71.20;;;;;;5085298;28;19958;-39
2023/07/19 12:36:15;;;;;;;;;;;24.30;71.30;;;;;;5083211;28;19908;-38
2023/07/19 12:38:41;;;;;;;;;;;24.20;71.20;;;;;;5085039;28;19912;-39
2023/07/19 12:41:06;;;;;;;;;;;24.30;71.20;;;;;;5082701;28;19912;-39
2023/07/19 12:43:32;;;;;;;;;;;24.20;71.10;;;;;;5085113;28;19916;-39
2023/07/19 12:45:58;;;;;;;;;;;24.30;71.10;;;;;;5084581;28;19927;-39
2023/07/19 12:48:25;;;;;;;;;;;24.30;71.10;;;;;;5085010;28;19919;-40
2023/07/19 12:50:51;;;;;;;;;;;24.30;71.00;;;;;;5083575;28;19909;-39
2023/07/19 12:53:18;;;;;;;;;;;24.30;71.50;;;;;;5084959;28;19912;-39
2023/07/19 12:55:44;;;;;;;;;;;24.30;71.50;;;;;;5084669;28;19960;-38
2023/07/19 12:58:09;;;;;;;;;;;24.30;71.60;;;;;;5084975;28;19919;-39
2023/07/19 13:00:36;;;;;;;;;;;24.30;71.60;;;;;;5084218;28;19913;-39
2023/07/19 13:03:02;;;;;;;;;;;24.20;71.50;;;;;;5083538;28;19916;-39
2023/07/19 13:05:29;;;;;;;;;;;24.30;71.40;;;;;;5084567;28;19942;-39
2023/07/19 13:07:55;;;;;;;;;;;24.30;71.30;;;;;;5084576;28;19920;-39
2023/07/19 13:10:21;;;;;;;;;;;24.30;71.30;;;;;;5083261;28;20333;-43
2023/07/19 13:12:48;;;;;;;;;;;24.30;71.20;;;;;;5082204;28;19952;-39
2023/07/19 13:15:14;;;;;;;;;;;24.30;71.20;;;;;;5084363;28;20483;-39
2023/07/19 13:17:41;;;;;;;;;;;24.30;71.20;;;;;;5084957;28;19921;-39
2023/07/19 13:20:09;;;;;;;;;;;24.30;71.20;;;;;;5084099;28;19923;-39
2023/07/19 13:22:34;;;;;;;;;;;24.30;71.30;;;;;;5084531;28;19916;-39
2023/07/19 13:25:00;;;;;;;;;;;24.30;71.30;;;;;;5083527;28;19921;-39
2023/07/19 13:27:26;;;;;;;;;;;24.30;71.40;;;;;;5084434;28;19912;-39
2023/07/19 13:29:53;;;;;;;;;;;24.30;71.50;;;;;;5083464;28;19919;-39
2023/07/19 13:32:19;;;;;;;;;;;24.30;71.50;;;;;;5082995;28;19940;-39
2023/07/19 13:34:45;;;;;;;;;;;24.30;71.60;;;;;;5078828;28;19934;-39
2023/07/19 13:37:11;;;;;;;;;;;24.40;71.70;;;;;;5083055;28;19912;-39
2023/07/19 13:39:37;;;;;;;;;;;24.40;71.70;;;;;;5082011;28;19934;-39
2023/07/19 13:42:03;;;;;;;;;;;24.40;71.80;;;;;;5083621;28;19943;-39
2023/07/19 13:44:29;;;;;;;;;;;24.40;72.00;;;;;;5083912;28;19927;-39
2023/07/19 13:46:55;;;;;;;;;;;24.40;72.00;;;;;;5083597;28;19912;-40
2023/07/19 13:49:21;;;;;;;;;;;24.40;72.00;;;;;;5084046;28;19983;-39
2023/07/19 13:51:47;;;;;;;;;;;24.50;72.20;;;;;;5083588;28;19920;-39
2023/07/19 13:54:13;;;;;;;;;;;24.50;72.30;;;;;;5083602;28;20471;-39
2023/07/19 13:56:39;;;;;;;;;;;24.50;72.50;;;;;;5083932;28;20357;-39
2023/07/19 13:59:04;;;;;;;;;;;24.50;72.60;;;;;;5083021;28;19923;-39
2023/07/19 14:01:30;;;;;;;;;;;24.50;72.40;;;;;;5083146;28;19954;-40
2023/07/19 14:03:56;;;;;;;;;;;24.50;72.60;;;;;;5083181;28;19988;-39
2023/07/19 14:06:22;;;;;;;;;;;24.50;72.70;;;;;;5083423;28;19912;-39
2023/07/19 14:08:48;;;;;;;;;;;24.60;72.90;;;;;;5082855;28;19942;-39
2023/07/19 14:11:14;;;;;;;;;;;24.60;72.80;;;;;;5083269;28;19917;-40
2023/07/19 14:13:48;;;;;;;;;;;24.60;72.70;;;;;;5083516;28;19915;-39